sensor_id;sensor_type;location;lat;lon;timestamp;pressure;altitude;pressure_sealevel;temperature;humidity
61676;BME280;47574;52.090;5.244;2023-05-21T00:02:11;101937.0;;;22.05;41.63
61676;BME280;47574;52.090;5.244;2023-05-21T00:03:47;101930.0;;;21.86;42.06
61676;BME280;47574;52.090;5.244;2023-05-21T00:05:23;101927.0;;;21.83;42.11
61676;BME280;47574;52.090;5.244;2023-05-21T00:06:59;101930.0;;;21.89;42.01
61676;BME280;47574;52.090;5.244;2023-05-21T00:10:12;101930.0;;;21.94;41.88
61676;BME280;47574;52.090;5.244;2023-05-21T00:11:49;101926.0;;;21.84;42.05
61676;BME280;47574;52.090;5.244;2023-05-21T00:13:25;101931.0;;;21.88;41.91
61676;BME280;47574;52.090;5.244;2023-05-21T00:16:39;101931.0;;;22.07;41.51
61676;BME280;47574;52.090;5.244;2023-05-21T00:18:15;101932.0;;;21.96;41.66
61676;BME280;47574;52.090;5.244;2023-05-21T00:19:51;101930.0;;;21.92;41.64
61676;BME280;47574;52.090;5.244;2023-05-21T00:23:03;101927.0;;;22.03;41.32
61676;BME280;47574;52.090;5.244;2023-05-21T00:24:40;101924.0;;;21.94;41.51
61676;BME280;47574;52.090;5.244;2023-05-21T00:26:16;101922.0;;;21.75;41.68
61676;BME280;47574;52.090;5.244;2023-05-21T00:29:29;101920.0;;;21.89;41.37
61676;BME280;47574;52.090;5.244;2023-05-21T00:31:06;101908.0;;;21.62;41.85
61676;BME280;47574;52.090;5.244;2023-05-21T00:32:42;101909.0;;;21.76;41.54
61676;BME280;47574;52.090;5.244;2023-05-21T00:34:18;101909.0;;;21.96;41.2
61676;BME280;47574;52.090;5.244;2023-05-21T00:37:30;101910.0;;;21.77;41.61
61676;BME280;47574;52.090;5.244;2023-05-21T00:39:06;101909.0;;;21.76;41.5
61676;BME280;47574;52.090;5.244;2023-05-21T00:40:43;101911.0;;;21.86;41.34
61676;BME280;47574;52.090;5.244;2023-05-21T00:43:55;101911.0;;;21.9;41.36
61676;BME280;47574;52.090;5.244;2023-05-21T00:45:32;101906.0;;;21.76;41.61
61676;BME280;47574;52.090;5.244;2023-05-21T00:47:08;101906.0;;;21.72;41.68
61676;BME280;47574;52.090;5.244;2023-05-21T00:50:22;101901.0;;;21.82;41.54
61676;BME280;47574;52.090;5.244;2023-05-21T00:51:58;101894.0;;;21.8;41.58
61676;BME280;47574;52.090;5.244;2023-05-21T00:53:34;101898.0;;;21.85;41.48
61676;BME280;47574;52.090;5.244;2023-05-21T00:55:11;101895.0;;;21.79;41.71
61676;BME280;47574;52.090;5.244;2023-05-21T00:58:25;101893.0;;;21.82;41.62
61676;BME280;47574;52.090;5.244;2023-05-21T01:00:04;101892.0;;;21.81;41.7
61676;BME280;47574;52.090;5.244;2023-05-21T01:01:42;101895.0;;;21.84;41.71
61676;BME280;47574;52.090;5.244;2023-05-21T01:04:56;101890.0;;;21.75;42.0
61676;BME280;47574;52.090;5.244;2023-05-21T01:06:33;101886.0;;;21.83;41.95
61676;BME280;47574;52.090;5.244;2023-05-21T01:08:09;101885.0;;;21.96;41.8
61676;BME280;47574;52.090;5.244;2023-05-21T01:09:46;101885.0;;;21.78;42.16
61676;BME280;47574;52.090;5.244;2023-05-21T01:13:12;101886.0;;;21.74;42.28
61676;BME280;47574;52.090;5.244;2023-05-21T01:14:50;101885.0;;;21.77;42.31
61676;BME280;47574;52.090;5.244;2023-05-21T01:16:27;101887.0;;;21.9;42.03
61676;BME280;47574;52.090;5.244;2023-05-21T01:19:39;101884.0;;;21.85;42.18
61676;BME280;47574;52.090;5.244;2023-05-21T01:21:19;101886.0;;;21.79;42.38
61676;BME280;47574;52.090;5.244;2023-05-21T01:22:56;101886.0;;;21.76;42.51
61676;BME280;47574;52.090;5.244;2023-05-21T01:24:33;101881.0;;;21.9;42.27
61676;BME280;47574;52.090;5.244;2023-05-21T01:27:46;101875.0;;;21.74;42.58
61676;BME280;47574;52.090;5.244;2023-05-21T01:29:22;101877.0;;;21.75;42.68
61676;BME280;47574;52.090;5.244;2023-05-21T01:31:07;101880.0;;;21.84;42.52
61676;BME280;47574;52.090;5.244;2023-05-21T01:33:01;101877.0;;;21.79;42.58
61676;BME280;47574;52.090;5.244;2023-05-21T01:36:28;101871.0;;;21.58;43.12
61676;BME280;47574;52.090;5.244;2023-05-21T01:38:11;101873.0;;;21.57;43.17
61676;BME280;47574;52.090;5.244;2023-05-21T01:39:53;101872.0;;;21.53;43.29
61676;BME280;47574;52.090;5.244;2023-05-21T01:41:33;101874.0;;;21.57;43.22
61676;BME280;47574;52.090;5.244;2023-05-21T01:44:53;101871.0;;;21.54;43.24
61676;BME280;47574;52.090;5.244;2023-05-21T01:46:32;101875.0;;;21.76;42.75
61676;BME280;47574;52.090;5.244;2023-05-21T01:48:10;101874.0;;;21.55;43.22
61676;BME280;47574;52.090;5.244;2023-05-21T01:49:48;101875.0;;;21.52;43.39
61676;BME280;47574;52.090;5.244;2023-05-21T01:53:02;101880.0;;;21.59;43.23
61676;BME280;47574;52.090;5.244;2023-05-21T01:54:38;101877.0;;;21.53;43.26
61676;BME280;47574;52.090;5.244;2023-05-21T01:56:14;101876.0;;;21.56;43.34
61676;BME280;47574;52.090;5.244;2023-05-21T01:59:28;101876.0;;;21.53;43.37
61676;BME280;47574;52.090;5.244;2023-05-21T02:01:05;101872.0;;;21.45;43.59
61676;BME280;47574;52.090;5.244;2023-05-21T02:02:41;101872.0;;;21.52;43.39
61676;BME280;47574;52.090;5.244;2023-05-21T02:04:17;101876.0;;;21.51;43.41
61676;BME280;47574;52.090;5.244;2023-05-21T02:07:30;101873.0;;;21.35;43.8
61676;BME280;47574;52.090;5.244;2023-05-21T02:09:06;101873.0;;;21.45;43.55
61676;BME280;47574;52.090;5.244;2023-05-21T02:10:42;101869.0;;;21.4;43.6
61676;BME280;47574;52.090;5.244;2023-05-21T02:13:55;101871.0;;;21.25;43.94
61676;BME280;47574;52.090;5.244;2023-05-21T02:15:31;101870.0;;;21.32;43.86
61676;BME280;47574;52.090;5.244;2023-05-21T02:17:09;101866.0;;;21.45;43.57
61676;BME280;47574;52.090;5.244;2023-05-21T02:20:21;101868.0;;;21.59;43.34
61676;BME280;47574;52.090;5.244;2023-05-21T02:21:57;101868.0;;;21.59;43.24
61676;BME280;47574;52.090;5.244;2023-05-21T02:23:33;101863.0;;;21.41;43.66
61676;BME280;47574;52.090;5.244;2023-05-21T02:25:11;101860.0;;;21.43;43.68
61676;BME280;47574;52.090;5.244;2023-05-21T02:28:24;101861.0;;;21.25;44.1
61676;BME280;47574;52.090;5.244;2023-05-21T02:30:01;101863.0;;;21.4;43.79
61676;BME280;47574;52.090;5.244;2023-05-21T02:31:37;101865.0;;;21.5;43.58
61676;BME280;47574;52.090;5.244;2023-05-21T02:34:51;101862.0;;;21.38;43.86
61676;BME280;47574;52.090;5.244;2023-05-21T02:36:27;101869.0;;;21.43;43.78
61676;BME280;47574;52.090;5.244;2023-05-21T02:38:03;101865.0;;;21.54;43.54
61676;BME280;47574;52.090;5.244;2023-05-21T02:41:16;101865.0;;;21.53;43.6
61676;BME280;47574;52.090;5.244;2023-05-21T02:42:52;101868.0;;;21.36;44.11
61676;BME280;47574;52.090;5.244;2023-05-21T02:44:28;101866.0;;;21.4;44.02
61676;BME280;47574;52.090;5.244;2023-05-21T02:46:05;101864.0;;;21.52;43.78
61676;BME280;47574;52.090;5.244;2023-05-21T02:49:17;101865.0;;;21.38;44.16
61676;BME280;47574;52.090;5.244;2023-05-21T02:50:54;101868.0;;;21.29;44.42
61676;BME280;47574;52.090;5.244;2023-05-21T02:52:30;101867.0;;;21.32;44.49
61676;BME280;47574;52.090;5.244;2023-05-21T02:55:42;101867.0;;;21.22;44.83
61676;BME280;47574;52.090;5.244;2023-05-21T02:57:18;101868.0;;;21.42;44.48
61676;BME280;47574;52.090;5.244;2023-05-21T02:58:54;101864.0;;;21.2;45.02
61676;BME280;47574;52.090;5.244;2023-05-21T03:02:07;101868.0;;;21.16;45.1
61676;BME280;47574;52.090;5.244;2023-05-21T03:03:43;101864.0;;;21.19;45.11
61676;BME280;47574;52.090;5.244;2023-05-21T03:05:19;101862.0;;;21.32;44.88
61676;BME280;47574;52.090;5.244;2023-05-21T03:06:56;101860.0;;;21.12;45.26
61676;BME280;47574;52.090;5.244;2023-05-21T03:10:08;101859.0;;;21.05;45.52
61676;BME280;47574;52.090;5.244;2023-05-21T03:11:45;101865.0;;;21.25;45.09
61676;BME280;47574;52.090;5.244;2023-05-21T03:13:21;101863.0;;;21.32;44.86
61676;BME280;47574;52.090;5.244;2023-05-21T03:16:34;101862.0;;;21.1;45.37
61676;BME280;47574;52.090;5.244;2023-05-21T03:18:10;101863.0;;;21.3;44.97
61676;BME280;47574;52.090;5.244;2023-05-21T03:19:46;101863.0;;;21.09;45.35
61676;BME280;47574;52.090;5.244;2023-05-21T03:22:58;101862.0;;;21.2;45.19
61676;BME280;47574;52.090;5.244;2023-05-21T03:24:35;101856.0;;;21.18;45.18
61676;BME280;47574;52.090;5.244;2023-05-21T03:26:11;101851.0;;;21.16;45.26
61676;BME280;47574;52.090;5.244;2023-05-21T03:29:23;101850.0;;;20.95;45.61
61676;BME280;47574;52.090;5.244;2023-05-21T03:30:59;101846.0;;;21.05;45.51
61676;BME280;47574;52.090;5.244;2023-05-21T03:32:36;101845.0;;;21.02;45.7
61676;BME280;47574;52.090;5.244;2023-05-21T03:34:13;101847.0;;;20.95;45.73
61676;BME280;47574;52.090;5.244;2023-05-21T03:37:25;101846.0;;;20.99;45.63
61676;BME280;47574;52.090;5.244;2023-05-21T03:39:01;101844.0;;;21.06;45.51
61676;BME280;47574;52.090;5.244;2023-05-21T03:40:37;101841.0;;;21.16;45.26
61676;BME280;47574;52.090;5.244;2023-05-21T03:43:50;101842.0;;;21.24;45.17
61676;BME280;47574;52.090;5.244;2023-05-21T03:45:26;101843.0;;;21.07;45.61
61676;BME280;47574;52.090;5.244;2023-05-21T03:47:02;101841.0;;;21.03;45.72
61676;BME280;47574;52.090;5.244;2023-05-21T03:50:15;101843.0;;;21.11;45.56
61676;BME280;47574;52.090;5.244;2023-05-21T03:51:51;101843.0;;;21.06;45.7
61676;BME280;47574;52.090;5.244;2023-05-21T03:53:27;101843.0;;;21.12;45.63
61676;BME280;47574;52.090;5.244;2023-05-21T03:55:04;101841.0;;;20.94;46.04
61676;BME280;47574;52.090;5.244;2023-05-21T03:58:16;101836.0;;;20.87;46.24
61676;BME280;47574;52.090;5.244;2023-05-21T03:59:53;101834.0;;;20.83;46.39
61676;BME280;47574;52.090;5.244;2023-05-21T04:01:29;101838.0;;;20.78;46.52
61676;BME280;47574;52.090;5.244;2023-05-21T04:04:41;101840.0;;;21.02;46.08
61676;BME280;47574;52.090;5.244;2023-05-21T04:06:17;101842.0;;;21.13;45.85
61676;BME280;47574;52.090;5.244;2023-05-21T04:07:54;101838.0;;;21.16;45.81
61676;BME280;47574;52.090;5.244;2023-05-21T04:11:06;101841.0;;;20.93;46.36
61676;BME280;47574;52.090;5.244;2023-05-21T04:12:42;101841.0;;;20.98;46.3
61676;BME280;47574;52.090;5.244;2023-05-21T04:14:18;101836.0;;;21.03;46.18
61676;BME280;47574;52.090;5.244;2023-05-21T04:17:31;101836.0;;;20.98;46.37
61676;BME280;47574;52.090;5.244;2023-05-21T04:19:07;101837.0;;;21.04;46.27
61676;BME280;47574;52.090;5.244;2023-05-21T04:20:43;101840.0;;;20.96;46.43
61676;BME280;47574;52.090;5.244;2023-05-21T04:22:20;101842.0;;;20.98;46.43
61676;BME280;47574;52.090;5.244;2023-05-21T04:25:32;101843.0;;;21.01;46.38
61676;BME280;47574;52.090;5.244;2023-05-21T04:27:08;101841.0;;;20.86;46.72
61676;BME280;47574;52.090;5.244;2023-05-21T04:28:44;101841.0;;;20.79;47.0
61676;BME280;47574;52.090;5.244;2023-05-21T04:31:57;101838.0;;;20.93;46.79
61676;BME280;47574;52.090;5.244;2023-05-21T04:33:33;101845.0;;;21.03;46.57
61676;BME280;47574;52.090;5.244;2023-05-21T04:35:09;101846.0;;;20.81;47.08
61676;BME280;47574;52.090;5.244;2023-05-21T04:38:22;101849.0;;;20.69;47.38
61676;BME280;47574;52.090;5.244;2023-05-21T04:39:59;101849.0;;;20.98;46.81
61676;BME280;47574;52.090;5.244;2023-05-21T04:41:36;101850.0;;;20.76;47.27
61676;BME280;47574;52.090;5.244;2023-05-21T04:43:12;101850.0;;;20.89;47.06
61676;BME280;47574;52.090;5.244;2023-05-21T04:46:25;101850.0;;;20.65;47.62
61676;BME280;47574;52.090;5.244;2023-05-21T04:48:02;101848.0;;;20.69;47.6
61676;BME280;47574;52.090;5.244;2023-05-21T04:49:38;101847.0;;;20.66;47.78
61676;BME280;47574;52.090;5.244;2023-05-21T04:52:50;101849.0;;;20.67;47.66
61676;BME280;47574;52.090;5.244;2023-05-21T04:54:27;101850.0;;;20.9;47.19
61676;BME280;47574;52.090;5.244;2023-05-21T04:56:04;101852.0;;;20.7;47.72
61676;BME280;47574;52.090;5.244;2023-05-21T04:59:17;101847.0;;;20.83;47.42
61676;BME280;47574;52.090;5.244;2023-05-21T05:00:53;101847.0;;;20.67;47.85
61676;BME280;47574;52.090;5.244;2023-05-21T05:02:29;101850.0;;;20.82;47.61
61676;BME280;47574;52.090;5.244;2023-05-21T05:04:05;101855.0;;;20.8;47.66
61676;BME280;47574;52.090;5.244;2023-05-21T05:07:19;101850.0;;;20.75;47.75
61676;BME280;47574;52.090;5.244;2023-05-21T05:08:55;101851.0;;;20.58;48.25
61676;BME280;47574;52.090;5.244;2023-05-21T05:10:31;101855.0;;;20.53;48.36
61676;BME280;47574;52.090;5.244;2023-05-21T05:13:43;101856.0;;;20.61;48.27
61676;BME280;47574;52.090;5.244;2023-05-21T05:15:20;101850.0;;;20.82;47.79
61676;BME280;47574;52.090;5.244;2023-05-21T05:16:56;101849.0;;;20.73;47.99
61676;BME280;47574;52.090;5.244;2023-05-21T05:20:10;101855.0;;;20.89;47.73
61676;BME280;47574;52.090;5.244;2023-05-21T05:21:46;101849.0;;;20.69;48.1
61676;BME280;47574;52.090;5.244;2023-05-21T05:23:23;101851.0;;;20.94;47.62
61676;BME280;47574;52.090;5.244;2023-05-21T05:24:59;101852.0;;;20.53;48.5
61676;BME280;47574;52.090;5.244;2023-05-21T05:28:12;101848.0;;;20.63;48.51
61676;BME280;47574;52.090;5.244;2023-05-21T05:29:48;101855.0;;;20.62;48.54
61676;BME280;47574;52.090;5.244;2023-05-21T05:31:25;101851.0;;;20.58;48.75
61676;BME280;47574;52.090;5.244;2023-05-21T05:34:37;101850.0;;;20.72;48.4
61676;BME280;47574;52.090;5.244;2023-05-21T05:36:14;101850.0;;;20.83;48.25
61676;BME280;47574;52.090;5.244;2023-05-21T05:37:49;101849.0;;;20.78;48.29
61676;BME280;47574;52.090;5.244;2023-05-21T05:41:02;101851.0;;;20.74;48.44
61676;BME280;47574;52.090;5.244;2023-05-21T05:42:38;101849.0;;;20.77;48.4
61676;BME280;47574;52.090;5.244;2023-05-21T05:44:14;101849.0;;;20.75;48.52
61676;BME280;47574;52.090;5.244;2023-05-21T05:47:26;101849.0;;;20.73;48.65
61676;BME280;47574;52.090;5.244;2023-05-21T05:49:03;101853.0;;;20.84;48.45
61676;BME280;47574;52.090;5.244;2023-05-21T05:50:39;101852.0;;;20.88;48.42
61676;BME280;47574;52.090;5.244;2023-05-21T05:52:15;101851.0;;;20.71;48.83
61676;BME280;47574;52.090;5.244;2023-05-21T05:55:27;101844.0;;;20.53;49.35
61676;BME280;47574;52.090;5.244;2023-05-21T05:57:04;101846.0;;;20.83;48.7
61676;BME280;47574;52.090;5.244;2023-05-21T05:58:41;101840.0;;;20.71;48.98
61676;BME280;47574;52.090;5.244;2023-05-21T06:01:53;101838.0;;;20.82;48.76
61676;BME280;47574;52.090;5.244;2023-05-21T06:03:29;101840.0;;;20.86;48.7
61676;BME280;47574;52.090;5.244;2023-05-21T06:05:06;101843.0;;;20.82;48.91
61676;BME280;47574;52.090;5.244;2023-05-21T06:08:19;101843.0;;;20.69;49.18
61676;BME280;47574;52.090;5.244;2023-05-21T06:09:55;101840.0;;;21.05;48.4
61676;BME280;47574;52.090;5.244;2023-05-21T06:11:31;101840.0;;;20.99;48.56
61676;BME280;47574;52.090;5.244;2023-05-21T06:13:07;101836.0;;;21.04;48.47
61676;BME280;47574;52.090;5.244;2023-05-21T06:16:20;101835.0;;;21.01;48.51
61676;BME280;47574;52.090;5.244;2023-05-21T06:17:56;101834.0;;;21.12;48.35
61676;BME280;47574;52.090;5.244;2023-05-21T06:19:32;101833.0;;;20.85;49.0
61676;BME280;47574;52.090;5.244;2023-05-21T06:22:44;101834.0;;;20.85;48.9
61676;BME280;47574;52.090;5.244;2023-05-21T06:24:21;101832.0;;;20.6;49.19
61676;BME280;47574;52.090;5.244;2023-05-21T06:25:57;101834.0;;;20.77;49.0
61676;BME280;47574;52.090;5.244;2023-05-21T06:29:09;101832.0;;;20.61;49.44
61676;BME280;47574;52.090;5.244;2023-05-21T06:30:45;101835.0;;;20.86;48.81
61676;BME280;47574;52.090;5.244;2023-05-21T06:32:21;101836.0;;;21.03;48.46
61676;BME280;47574;52.090;5.244;2023-05-21T06:35:36;101832.0;;;20.95;48.51
61676;BME280;47574;52.090;5.244;2023-05-21T06:37:12;101833.0;;;20.66;49.03
61676;BME280;47574;52.090;5.244;2023-05-21T06:38:48;101833.0;;;20.63;49.29
61676;BME280;47574;52.090;5.244;2023-05-21T06:40:24;101832.0;;;20.8;49.05
61676;BME280;47574;52.090;5.244;2023-05-21T06:43:37;101830.0;;;20.79;49.08
61676;BME280;47574;52.090;5.244;2023-05-21T06:45:13;101834.0;;;20.79;49.05
61676;BME280;47574;52.090;5.244;2023-05-21T06:46:49;101835.0;;;20.75;49.16
61676;BME280;47574;52.090;5.244;2023-05-21T06:50:03;101838.0;;;20.76;49.11
61676;BME280;47574;52.090;5.244;2023-05-21T06:51:40;101837.0;;;21.06;48.59
61676;BME280;47574;52.090;5.244;2023-05-21T06:53:16;101830.0;;;21.33;48.04
61676;BME280;47574;52.090;5.244;2023-05-21T06:56:29;101830.0;;;21.16;48.36
61676;BME280;47574;52.090;5.244;2023-05-21T06:58:05;101831.0;;;21.1;48.53
61676;BME280;47574;52.090;5.244;2023-05-21T06:59:42;101830.0;;;21.32;48.1
61676;BME280;47574;52.090;5.244;2023-05-21T07:01:18;101831.0;;;21.22;48.29
61676;BME280;47574;52.090;5.244;2023-05-21T07:04:30;101830.0;;;21.38;48.01
61676;BME280;47574;52.090;5.244;2023-05-21T07:06:06;101828.0;;;21.48;47.88
61676;BME280;47574;52.090;5.244;2023-05-21T07:07:43;101828.0;;;21.54;47.71
61676;BME280;47574;52.090;5.244;2023-05-21T07:10:55;101824.0;;;21.59;47.58
61676;BME280;47574;52.090;5.244;2023-05-21T07:12:31;101825.0;;;21.65;47.46
61676;BME280;47574;52.090;5.244;2023-05-21T07:14:07;101825.0;;;21.68;47.37
61676;BME280;47574;52.090;5.244;2023-05-21T07:17:20;101825.0;;;21.65;47.51
61676;BME280;47574;52.090;5.244;2023-05-21T07:18:56;101830.0;;;21.66;47.43
61676;BME280;47574;52.090;5.244;2023-05-21T07:20:32;101830.0;;;21.79;47.1
61676;BME280;47574;52.090;5.244;2023-05-21T07:22:08;101832.0;;;21.81;47.28
61676;BME280;47574;52.090;5.244;2023-05-21T07:25:21;101833.0;;;21.79;47.22
61676;BME280;47574;52.090;5.244;2023-05-21T07:26:59;101839.0;;;21.93;46.95
61676;BME280;47574;52.090;5.244;2023-05-21T07:28:35;101839.0;;;21.74;47.32
61676;BME280;47574;52.090;5.244;2023-05-21T07:31:49;101838.0;;;22.0;46.93
61676;BME280;47574;52.090;5.244;2023-05-21T07:33:25;101843.0;;;21.81;47.15
61676;BME280;47574;52.090;5.244;2023-05-21T07:35:04;101836.0;;;21.91;47.03
61676;BME280;47574;52.090;5.244;2023-05-21T07:38:17;101839.0;;;21.84;47.39
61676;BME280;47574;52.090;5.244;2023-05-21T07:39:53;101840.0;;;21.97;47.02
61676;BME280;47574;52.090;5.244;2023-05-21T07:41:32;101842.0;;;21.96;47.1
61676;BME280;47574;52.090;5.244;2023-05-21T07:43:10;101835.0;;;21.99;47.02
61676;BME280;47574;52.090;5.244;2023-05-21T07:46:23;101833.0;;;22.03;46.91
61676;BME280;47574;52.090;5.244;2023-05-21T07:47:59;101835.0;;;22.03;46.91
61676;BME280;47574;52.090;5.244;2023-05-21T07:49:35;101832.0;;;22.14;46.74
61676;BME280;47574;52.090;5.244;2023-05-21T07:52:48;101831.0;;;22.29;46.6
61676;BME280;47574;52.090;5.244;2023-05-21T07:54:24;101825.0;;;22.42;46.31
61676;BME280;47574;52.090;5.244;2023-05-21T07:56:00;101825.0;;;22.46;46.0
61676;BME280;47574;52.090;5.244;2023-05-21T07:59:13;101817.0;;;22.37;46.02
61676;BME280;47574;52.090;5.244;2023-05-21T08:00:51;101822.0;;;22.15;46.51
61676;BME280;47574;52.090;5.244;2023-05-21T08:02:27;101816.0;;;22.33;45.92
61676;BME280;47574;52.090;5.244;2023-05-21T08:04:03;101813.0;;;22.33;46.05
61676;BME280;47574;52.090;5.244;2023-05-21T08:07:16;101816.0;;;22.39;46.03
61676;BME280;47574;52.090;5.244;2023-05-21T08:08:52;101814.0;;;22.61;45.79
61676;BME280;47574;52.090;5.244;2023-05-21T08:10:29;101814.0;;;22.63;45.8
61676;BME280;47574;52.090;5.244;2023-05-21T08:13:42;101808.0;;;22.73;45.62
61676;BME280;47574;52.090;5.244;2023-05-21T08:15:19;101805.0;;;22.6;45.82
61676;BME280;47574;52.090;5.244;2023-05-21T08:16:55;101802.0;;;22.79;45.4
61676;BME280;47574;52.090;5.244;2023-05-21T08:20:08;101807.0;;;22.82;45.35
61676;BME280;47574;52.090;5.244;2023-05-21T08:21:44;101794.0;;;22.86;45.36
61676;BME280;47574;52.090;5.244;2023-05-21T08:23:20;101799.0;;;22.98;45.11
61676;BME280;47574;52.090;5.244;2023-05-21T08:24:57;101798.0;;;23.08;44.96
61676;BME280;47574;52.090;5.244;2023-05-21T08:28:09;101799.0;;;22.96;45.03
61676;BME280;47574;52.090;5.244;2023-05-21T08:29:45;101800.0;;;23.05;44.66
61676;BME280;47574;52.090;5.244;2023-05-21T08:31:21;101806.0;;;23.02;44.93
61676;BME280;47574;52.090;5.244;2023-05-21T08:34:34;101803.0;;;23.17;44.62
61676;BME280;47574;52.090;5.244;2023-05-21T08:36:10;101796.0;;;23.0;44.8
61676;BME280;47574;52.090;5.244;2023-05-21T08:37:46;101808.0;;;23.26;44.5
61676;BME280;47574;52.090;5.244;2023-05-21T08:40:58;101801.0;;;22.81;45.04
61676;BME280;47574;52.090;5.244;2023-05-21T08:42:39;101805.0;;;22.99;44.95
61676;BME280;47574;52.090;5.244;2023-05-21T08:44:19;101805.0;;;22.94;45.0
61676;BME280;47574;52.090;5.244;2023-05-21T08:45:56;101805.0;;;22.87;45.16
61676;BME280;47574;52.090;5.244;2023-05-21T08:49:21;101813.0;;;22.94;45.05
61676;BME280;47574;52.090;5.244;2023-05-21T08:51:02;101808.0;;;23.28;44.62
61676;BME280;47574;52.090;5.244;2023-05-21T08:52:39;101811.0;;;23.24;44.85
61676;BME280;47574;52.090;5.244;2023-05-21T08:54:16;101802.0;;;23.22;44.72
61676;BME280;47574;52.090;5.244;2023-05-21T08:57:30;101810.0;;;23.3;44.72
61676;BME280;47574;52.090;5.244;2023-05-21T08:59:07;101808.0;;;23.46;44.31
61676;BME280;47574;52.090;5.244;2023-05-21T09:00:43;101805.0;;;23.13;44.8
61676;BME280;47574;52.090;5.244;2023-05-21T09:03:58;101805.0;;;23.45;44.32
61676;BME280;47574;52.090;5.244;2023-05-21T09:05:38;101805.0;;;23.55;44.19
61676;BME280;47574;52.090;5.244;2023-05-21T09:07:15;101802.0;;;23.43;44.5
61676;BME280;47574;52.090;5.244;2023-05-21T09:08:56;101805.0;;;23.56;44.23
61676;BME280;47574;52.090;5.244;2023-05-21T09:12:21;101802.0;;;23.48;44.65
61676;BME280;47574;52.090;5.244;2023-05-21T09:13:59;101800.0;;;23.55;44.42
61676;BME280;47574;52.090;5.244;2023-05-21T09:15:35;101795.0;;;23.45;44.59
61676;BME280;47574;52.090;5.244;2023-05-21T09:18:48;101791.0;;;23.25;44.9
61676;BME280;47574;52.090;5.244;2023-05-21T09:20:26;101790.0;;;23.49;44.62
61676;BME280;47574;52.090;5.244;2023-05-21T09:22:04;101790.0;;;23.57;44.29
61676;BME280;47574;52.090;5.244;2023-05-21T09:23:40;101794.0;;;23.52;44.39
61676;BME280;47574;52.090;5.244;2023-05-21T09:26:59;101795.0;;;23.49;44.36
61676;BME280;47574;52.090;5.244;2023-05-21T09:28:35;101792.0;;;23.53;44.37
61676;BME280;47574;52.090;5.244;2023-05-21T09:30:13;101788.0;;;23.59;44.15
61676;BME280;47574;52.090;5.244;2023-05-21T09:31:51;101788.0;;;23.53;44.24
61676;BME280;47574;52.090;5.244;2023-05-21T09:35:06;101790.0;;;23.76;43.75
61676;BME280;47574;52.090;5.244;2023-05-21T09:36:42;101784.0;;;23.64;44.15
61676;BME280;47574;52.090;5.244;2023-05-21T09:38:21;101781.0;;;23.75;44.18
61676;BME280;47574;52.090;5.244;2023-05-21T09:41:35;101785.0;;;23.7;44.07
61676;BME280;47574;52.090;5.244;2023-05-21T09:43:13;101785.0;;;23.76;43.84
61676;BME280;47574;52.090;5.244;2023-05-21T09:44:49;101780.0;;;23.72;43.64
61676;BME280;47574;52.090;5.244;2023-05-21T09:48:02;101781.0;;;23.8;43.64
61676;BME280;47574;52.090;5.244;2023-05-21T09:49:42;101776.0;;;24.06;43.18
61676;BME280;47574;52.090;5.244;2023-05-21T09:51:19;101767.0;;;24.33;42.82
61676;BME280;47574;52.090;5.244;2023-05-21T09:52:55;101765.0;;;23.91;43.41
61676;BME280;47574;52.090;5.244;2023-05-21T09:56:09;101762.0;;;24.09;43.22
61676;BME280;47574;52.090;5.244;2023-05-21T09:57:46;101762.0;;;24.06;43.36
61676;BME280;47574;52.090;5.244;2023-05-21T09:59:24;101762.0;;;24.39;42.74
61676;BME280;47574;52.090;5.244;2023-05-21T10:01:10;101761.0;;;24.21;43.15
61676;BME280;47574;52.090;5.244;2023-05-21T10:04:29;101762.0;;;24.18;43.03
61676;BME280;47574;52.090;5.244;2023-05-21T10:06:07;101758.0;;;24.36;42.78
61676;BME280;47574;52.090;5.244;2023-05-21T10:07:48;101755.0;;;23.96;43.59
61676;BME280;47574;52.090;5.244;2023-05-21T10:11:04;101762.0;;;24.32;42.91
61676;BME280;47574;52.090;5.244;2023-05-21T10:12:43;101763.0;;;23.93;43.22
61676;BME280;47574;52.090;5.244;2023-05-21T10:14:24;101761.0;;;23.9;43.3
61676;BME280;47574;52.090;5.244;2023-05-21T10:16:03;101749.0;;;24.21;43.14
61676;BME280;47574;52.090;5.244;2023-05-21T10:19:19;101755.0;;;24.16;42.9
61676;BME280;47574;52.090;5.244;2023-05-21T10:20:55;101755.0;;;24.23;42.92
61676;BME280;47574;52.090;5.244;2023-05-21T10:22:34;101750.0;;;24.41;42.73
61676;BME280;47574;52.090;5.244;2023-05-21T10:24:12;101743.0;;;24.38;42.81
61676;BME280;47574;52.090;5.244;2023-05-21T10:27:29;101743.0;;;24.69;42.29
61676;BME280;47574;52.090;5.244;2023-05-21T10:29:07;101743.0;;;24.63;42.58
61676;BME280;47574;52.090;5.244;2023-05-21T10:30:44;101748.0;;;24.61;42.71
61676;BME280;47574;52.090;5.244;2023-05-21T10:33:59;101745.0;;;24.78;42.08
61676;BME280;47574;52.090;5.244;2023-05-21T10:35:39;101755.0;;;24.88;42.02
61676;BME280;47574;52.090;5.244;2023-05-21T10:37:15;101746.0;;;25.04;41.57
61676;BME280;47574;52.090;5.244;2023-05-21T10:38:52;101751.0;;;25.01;41.66
61676;BME280;47574;52.090;5.244;2023-05-21T10:42:15;101739.0;;;25.04;41.66
61676;BME280;47574;52.090;5.244;2023-05-21T10:44:07;101737.0;;;25.07;41.73
61676;BME280;47574;52.090;5.244;2023-05-21T10:46:02;101739.0;;;25.09;41.71
61676;BME280;47574;52.090;5.244;2023-05-21T10:48:01;101735.0;;;25.01;41.78
61676;BME280;47574;52.090;5.244;2023-05-21T10:49:56;101740.0;;;25.1;41.54
61676;BME280;47574;52.090;5.244;2023-05-21T10:51:44;101739.0;;;25.2;41.46
61676;BME280;47574;52.090;5.244;2023-05-21T10:53:32;101736.0;;;25.4;41.27
61676;BME280;47574;52.090;5.244;2023-05-21T10:57:20;101739.0;;;25.01;41.79
61676;BME280;47574;52.090;5.244;2023-05-21T10:59:10;101732.0;;;25.09;41.63
61676;BME280;47574;52.090;5.244;2023-05-21T11:00:55;101738.0;;;25.27;41.37
61676;BME280;47574;52.090;5.244;2023-05-21T11:02:33;101736.0;;;25.33;41.22
61676;BME280;47574;52.090;5.244;2023-05-21T11:04:10;101744.0;;;25.19;41.43
61676;BME280;47574;52.090;5.244;2023-05-21T11:08:01;101737.0;;;25.51;41.0